createdAt,value
2019-04-28T00:01:58.427Z,7.60
2019-04-28T00:04:28.908Z,7.97
2019-04-28T00:06:59.331Z,8.57
2019-04-28T00:09:31.345Z,7.27
2019-04-28T00:12:02.588Z,9.30
2019-04-28T00:14:33.060Z,8.00
2019-04-28T00:17:04.368Z,7.60
2019-04-28T00:19:34.872Z,9.47
2019-04-28T00:22:17.888Z,9.30
2019-04-28T00:24:53.865Z,9.30
2019-04-28T00:27:24.718Z,8.63
2019-04-28T00:29:55.455Z,9.50
2019-04-28T00:32:26.296Z,9.20
2019-04-28T00:34:56.728Z,9.50
2019-04-28T00:37:31.912Z,8.80
2019-04-28T00:40:02.902Z,9.33
2019-04-28T00:42:34.051Z,8.87
2019-04-28T00:45:05.212Z,9.83
2019-04-28T00:47:36.163Z,9.70
2019-04-28T00:50:07.637Z,11.10
2019-04-28T00:52:38.433Z,9.53
2019-04-28T00:55:11.050Z,10.07
2019-04-28T00:57:41.950Z,9.27
2019-04-28T01:00:14.420Z,9.40
2019-04-28T01:02:45.591Z,8.53
2019-04-28T01:05:16.219Z,9.70
2019-04-28T01:07:47.047Z,9.87
2019-04-28T01:10:21.050Z,10.07
2019-04-28T01:12:52.347Z,9.70
2019-04-28T01:15:39.655Z,10.00
2019-04-28T01:18:25.811Z,9.87
2019-04-28T01:20:56.758Z,10.73
2019-04-28T01:23:27.206Z,9.13
2019-04-28T01:25:59.955Z,10.10
2019-04-28T01:28:31.256Z,9.00
2019-04-28T01:31:25.353Z,9.07
2019-04-28T01:34:19.852Z,9.87
2019-04-28T01:36:51.731Z,8.53
2019-04-28T01:39:22.387Z,10.07
2019-04-28T01:44:15.188Z,9.03
2019-04-28T01:46:46.689Z,8.93
2019-04-28T01:49:17.390Z,9.80
2019-04-28T01:52:00.924Z,10.23
2019-04-28T01:54:31.646Z,9.53
2019-04-28T01:57:02.180Z,10.17
2019-04-28T01:59:33.082Z,10.63
2019-04-28T02:02:03.995Z,10.07
2019-04-28T02:04:34.441Z,10.20
2019-04-28T02:07:05.278Z,10.73
2019-04-28T02:09:36.015Z,11.23
2019-04-28T02:12:06.452Z,9.80
2019-04-28T02:14:36.932Z,11.03
2019-04-28T02:17:07.392Z,10.53
2019-04-28T02:19:37.830Z,11.00
2019-04-28T02:22:32.665Z,10.43
2019-04-28T02:25:03.104Z,11.40
2019-04-28T02:27:33.889Z,11.07
2019-04-28T02:30:06.210Z,11.77
2019-04-28T02:32:36.644Z,9.70
2019-04-28T02:35:10.425Z,12.37
2019-04-28T02:37:40.555Z,10.50
2019-04-28T02:40:11.523Z,11.27
2019-04-28T02:42:41.946Z,10.77
2019-04-28T02:45:14.304Z,11.60
2019-04-28T02:47:44.733Z,12.07
2019-04-28T02:50:25.107Z,12.50
2019-04-28T02:53:06.839Z,12.43
2019-04-28T02:55:37.330Z,12.27
2019-04-28T02:58:07.767Z,12.40
2019-04-28T03:00:38.205Z,12.10
2019-04-28T03:03:11.013Z,12.67
2019-04-28T03:05:41.415Z,12.87
2019-04-28T03:08:12.096Z,12.63
2019-04-28T03:10:42.577Z,13.37
2019-04-28T03:13:13.532Z,12.57
2019-04-28T03:15:44.577Z,11.30
2019-04-28T03:18:15.145Z,12.37
2019-04-28T03:20:45.576Z,12.83
2019-04-28T03:23:17.049Z,12.30
2019-04-28T03:26:11.186Z,14.77
2019-04-28T03:28:51.486Z,12.37
2019-04-28T03:32:16.496Z,12.77
2019-04-28T03:34:15.936Z,12.97
2019-04-28T03:36:46.378Z,14.33
2019-04-28T03:39:16.891Z,14.47
2019-04-28T03:41:47.295Z,14.43
2019-04-28T03:44:17.719Z,15.13
2019-04-28T03:46:52.606Z,13.97
2019-04-28T03:49:33.306Z,14.57
2019-04-28T03:52:06.835Z,13.40
2019-04-28T03:54:40.660Z,13.67
2019-04-28T03:57:11.322Z,15.73
2019-04-28T03:59:43.815Z,14.27
2019-04-28T04:02:14.717Z,15.33
2019-04-28T04:04:45.597Z,15.37
2019-04-28T04:07:16.752Z,14.23
2019-04-28T04:10:05.355Z,13.20
2019-04-28T04:13:00.902Z,14.93
2019-04-28T04:15:53.332Z,14.93
2019-04-28T04:18:26.289Z,15.40
2019-04-28T04:20:56.758Z,12.60
2019-04-28T04:23:30.862Z,14.50
2019-04-28T04:26:01.832Z,14.83
2019-04-28T04:28:33.020Z,14.77
2019-04-28T04:31:03.566Z,13.43
2019-04-28T04:33:34.460Z,13.13
2019-04-28T04:36:04.889Z,12.70
2019-04-28T04:38:35.318Z,12.57
2019-04-28T04:41:06.199Z,12.70
2019-04-28T04:43:36.643Z,14.60
2019-04-28T04:46:22.739Z,13.00
2019-04-28T04:48:53.347Z,12.90
2019-04-28T04:51:23.788Z,13.70
2019-04-28T04:53:54.269Z,12.63
2019-04-28T04:56:24.703Z,11.37
2019-04-28T04:58:55.485Z,13.37
2019-04-28T05:01:43.769Z,12.33
2019-04-28T05:04:36.245Z,10.93
2019-04-28T05:07:07.266Z,12.93
2019-04-28T05:09:39.496Z,12.47
2019-04-28T05:12:10.373Z,10.37
2019-04-28T05:14:41.217Z,11.13
2019-04-28T05:17:11.950Z,11.10
2019-04-28T05:19:42.686Z,10.60
2019-04-28T05:22:13.777Z,10.30
2019-04-28T05:25:00.097Z,9.67
2019-04-28T05:27:32.504Z,9.73
2019-04-28T05:30:05.157Z,9.83
2019-04-28T05:32:44.649Z,9.53
2019-04-28T05:35:07.303Z,9.40
2019-04-28T05:37:37.731Z,9.37
2019-04-28T05:40:10.514Z,9.10
2019-04-28T05:43:00.847Z,9.73
2019-04-28T05:45:32.319Z,9.77
2019-04-28T05:48:02.891Z,9.27
2019-04-28T05:50:44.589Z,8.73
2019-04-28T05:53:21.773Z,9.60
2019-04-28T05:56:13.085Z,7.87
2019-04-28T05:59:05.214Z,9.00
2019-04-28T06:01:43.513Z,8.93
2019-04-28T06:04:14.299Z,8.17
2019-04-28T06:06:47.183Z,7.10
2019-04-28T06:09:24.586Z,7.50
2019-04-28T06:11:55.286Z,6.97
2019-04-28T06:14:25.716Z,7.33
2019-04-28T06:16:56.203Z,7.83
2019-04-28T06:19:26.634Z,7.87
2019-04-28T06:21:57.062Z,7.40
2019-04-28T06:24:27.563Z,7.77
2019-04-28T06:26:57.994Z,7.37
2019-04-28T06:29:28.729Z,7.47
2019-04-28T06:31:59.575Z,7.50
2019-04-28T06:34:30.021Z,7.07
2019-04-28T06:37:00.449Z,7.63
2019-04-28T06:39:30.923Z,6.97
2019-04-28T06:42:01.644Z,7.53
2019-04-28T06:44:32.171Z,6.80
2019-04-28T06:47:03.070Z,7.50
2019-04-28T06:49:33.941Z,7.10
2019-04-28T06:52:04.584Z,6.73
2019-04-28T06:54:35.336Z,7.10
2019-04-28T06:57:05.770Z,6.80
2019-04-28T06:59:36.544Z,6.30
2019-04-28T07:02:07.012Z,6.37
2019-04-28T07:04:38.121Z,6.50
2019-04-28T07:07:08.552Z,6.43
2019-04-28T07:09:39.387Z,6.93
2019-04-28T07:12:09.820Z,5.90
2019-04-28T07:14:40.256Z,6.47
2019-04-28T07:17:10.742Z,6.07
2019-04-28T07:19:42.818Z,6.73
2019-04-28T07:22:21.669Z,5.43
2019-04-28T07:24:52.134Z,6.80
2019-04-28T07:27:22.667Z,6.47
2019-04-28T07:29:53.158Z,6.90
2019-04-28T07:32:23.597Z,6.50
2019-04-28T07:34:54.329Z,6.83
2019-04-28T07:37:25.177Z,6.40
2019-04-28T07:39:56.858Z,5.90
2019-04-28T07:42:27.820Z,6.70
2019-04-28T07:44:58.417Z,6.60
2019-04-28T07:47:28.902Z,6.77
2019-04-28T07:50:00.104Z,6.83
2019-04-28T07:52:39.736Z,7.07
2019-04-28T07:55:10.291Z,7.70
2019-04-28T07:57:40.734Z,7.67
2019-04-28T08:00:13.513Z,7.63
2019-04-28T08:02:43.967Z,7.87
2019-04-28T08:05:14.422Z,7.43
2019-04-28T08:07:44.910Z,7.80
2019-04-28T08:10:15.798Z,6.80
2019-04-28T08:12:49.119Z,6.47
2019-04-28T08:15:20.150Z,7.00
2019-04-28T08:17:50.616Z,6.80
2019-04-28T08:20:21.515Z,6.37
2019-04-28T08:22:52.764Z,7.13
2019-04-28T08:25:23.246Z,6.90
2019-04-28T08:27:53.714Z,5.90
2019-04-28T08:30:24.442Z,6.37
2019-04-28T08:33:00.388Z,7.03
2019-04-28T08:35:31.215Z,6.50
2019-04-28T08:38:01.648Z,6.40
2019-04-28T08:40:32.434Z,6.93
2019-04-28T08:43:03.774Z,6.90
2019-04-28T08:45:34.219Z,6.90
2019-04-28T08:48:04.653Z,7.53
2019-04-28T08:50:35.161Z,7.80
2019-04-28T08:53:05.914Z,8.17
2019-04-28T08:55:36.323Z,7.20
2019-04-28T08:58:06.814Z,7.00
2019-04-28T09:00:37.266Z,6.27
2019-04-28T09:03:08.026Z,8.43
2019-04-28T09:05:38.522Z,6.63
2019-04-28T09:08:09.020Z,5.70
2019-04-28T09:10:39.834Z,6.20
2019-04-28T09:13:10.363Z,5.40
2019-04-28T09:15:40.814Z,5.33
2019-04-28T09:18:11.248Z,6.07
2019-04-28T09:20:42.681Z,4.40
2019-04-28T09:23:13.858Z,5.33
2019-04-28T09:25:44.696Z,4.70
2019-04-28T09:28:15.230Z,5.10
2019-04-28T09:30:45.668Z,5.00
2019-04-28T09:33:16.127Z,5.17
2019-04-28T09:35:46.670Z,5.43
2019-04-28T09:38:17.423Z,4.93
2019-04-28T09:40:47.878Z,5.10
2019-04-28T09:43:26.018Z,5.30
2019-04-28T09:46:01.786Z,5.10
2019-04-28T09:48:32.291Z,4.63
2019-04-28T09:51:03.081Z,4.97
2019-04-28T09:53:33.922Z,5.37
2019-04-28T09:56:04.454Z,4.93
2019-04-28T09:58:35.538Z,3.90
2019-04-28T10:01:06.674Z,3.50
2019-04-28T10:03:37.309Z,2.43
2019-04-28T10:06:08.139Z,2.73
2019-04-28T10:08:38.638Z,2.30
2019-04-28T10:11:10.098Z,2.47
2019-04-28T10:13:40.947Z,2.40
2019-04-28T10:16:11.406Z,2.07
2019-04-28T10:18:42.804Z,2.60
2019-04-28T10:21:13.862Z,2.47
2019-04-28T10:23:44.327Z,2.20
2019-04-28T10:26:14.820Z,1.70
2019-04-28T10:28:45.973Z,1.77
2019-04-28T10:31:16.499Z,1.50
2019-04-28T10:33:52.478Z,1.90
2019-04-28T10:36:23.116Z,2.00
2019-04-28T10:38:55.206Z,1.63
2019-04-28T10:41:33.541Z,1.77
2019-04-28T10:44:04.109Z,1.70
2019-04-28T10:46:34.946Z,1.50
2019-04-28T10:49:05.446Z,1.50
2019-04-28T10:51:35.881Z,1.30
2019-04-28T10:54:06.337Z,1.87
2019-04-28T10:56:36.821Z,2.50
2019-04-28T10:59:07.259Z,1.77
2019-04-28T11:01:38.033Z,2.40
2019-04-28T11:04:11.489Z,2.60
2019-04-28T11:06:41.938Z,2.07
2019-04-28T11:09:37.664Z,3.20
2019-04-28T11:12:10.843Z,3.93
2019-04-28T11:14:41.397Z,2.73
2019-04-28T11:17:14.411Z,3.07
2019-04-28T11:19:44.849Z,3.50
2019-04-28T11:22:15.671Z,3.10
2019-04-28T11:24:46.541Z,2.57
2019-04-28T11:27:17.647Z,2.57
2019-04-28T11:29:48.138Z,2.03
2019-04-28T11:32:18.664Z,2.30
2019-04-28T11:35:01.829Z,2.10
2019-04-28T11:37:32.304Z,2.20
2019-04-28T11:40:03.089Z,2.77
2019-04-28T11:42:33.858Z,2.47
2019-04-28T11:45:05.212Z,2.17
2019-04-28T11:47:36.053Z,2.43
2019-04-28T11:50:07.017Z,2.80
2019-04-28T11:52:37.503Z,2.00
2019-04-28T11:55:08.192Z,2.77
2019-04-28T11:57:39.616Z,2.40
2019-04-28T12:00:22.245Z,2.37
2019-04-28T12:02:53.021Z,2.20
2019-04-28T12:05:34.253Z,2.07
2019-04-28T12:07:58.286Z,2.60
2019-04-28T12:10:33.675Z,3.87
2019-04-28T12:13:10.487Z,4.97
2019-04-28T12:15:59.974Z,3.57
2019-04-28T12:19:05.096Z,3.40
2019-04-28T12:21:35.922Z,3.23
2019-04-28T12:24:06.432Z,2.87
2019-04-28T12:26:37.337Z,3.20
2019-04-28T12:29:08.205Z,3.03
2019-04-28T12:31:38.652Z,1.93
2019-04-28T12:34:10.121Z,2.03
2019-04-28T12:36:40.565Z,2.43
2019-04-28T12:39:11.028Z,2.13
2019-04-28T12:41:41.926Z,2.27
2019-04-28T12:44:12.740Z,2.43
2019-04-28T12:46:43.915Z,2.60
2019-04-28T12:49:28.691Z,2.33
2019-04-28T12:51:59.150Z,2.30
2019-04-28T12:54:31.878Z,2.33
2019-04-28T12:57:02.717Z,2.40
2019-04-28T12:59:39.776Z,2.10
2019-04-28T13:02:17.605Z,2.10
2019-04-28T13:04:59.776Z,2.20
2019-04-28T13:07:30.277Z,2.10
2019-04-28T13:10:00.709Z,2.58
2019-04-28T13:12:31.150Z,2.00
2019-04-28T13:15:02.062Z,2.53
2019-04-28T13:17:32.540Z,2.23
2019-04-28T13:20:03.257Z,2.20
2019-04-28T13:22:33.748Z,2.07
2019-04-28T13:25:04.614Z,2.00
2019-04-28T13:27:35.137Z,2.20
2019-04-28T13:30:06.650Z,2.13
2019-04-28T13:32:37.129Z,2.50
2019-04-28T13:35:07.692Z,2.27
2019-04-28T13:37:38.555Z,2.23
2019-04-28T13:40:16.427Z,2.10
2019-04-28T13:42:46.927Z,2.60
2019-04-28T13:45:20.509Z,2.33
2019-04-28T13:47:50.957Z,2.03
2019-04-28T13:50:41.495Z,1.83
2019-04-28T13:53:12.577Z,2.30
2019-04-28T13:55:59.994Z,2.13
2019-04-28T13:58:32.346Z,2.00
2019-04-28T14:01:25.001Z,2.50
2019-04-28T14:04:13.685Z,2.70
2019-04-28T14:06:47.781Z,2.50
2019-04-28T14:09:18.257Z,2.20
2019-04-28T14:11:48.696Z,2.53
2019-04-28T14:14:19.281Z,3.30
2019-04-28T14:16:50.225Z,2.70
2019-04-28T14:19:20.643Z,4.13
2019-04-28T14:21:51.501Z,2.30
2019-04-28T14:24:21.981Z,3.43
2019-04-28T14:26:53.337Z,2.93
2019-04-28T14:29:24.179Z,3.40
2019-04-28T14:31:55.845Z,2.97
2019-04-28T14:34:26.335Z,4.37
2019-04-28T14:36:56.879Z,4.17
2019-04-28T14:39:27.343Z,4.63
2019-04-28T14:41:58.190Z,4.20
2019-04-28T14:44:28.690Z,4.93
2019-04-28T14:46:59.174Z,5.33
2019-04-28T14:49:29.586Z,4.43
2019-04-28T14:52:00.810Z,4.87
2019-04-28T14:54:31.341Z,4.83
2019-04-28T14:57:01.851Z,4.23
2019-04-28T14:59:32.680Z,5.03
2019-04-28T15:02:15.697Z,4.20
2019-04-28T15:05:10.484Z,4.10
2019-04-28T15:07:59.965Z,4.13
2019-04-28T15:10:37.066Z,4.60
2019-04-28T15:13:07.888Z,4.10
2019-04-28T15:15:40.700Z,4.53
2019-04-28T15:18:11.798Z,4.47
2019-04-28T15:20:42.666Z,4.17
2019-04-28T15:23:13.105Z,3.67
2019-04-28T15:25:43.600Z,3.83
2019-04-28T15:28:15.375Z,4.10
2019-04-28T15:30:46.252Z,3.27
2019-04-28T15:33:17.154Z,4.10
2019-04-28T15:35:47.606Z,4.20
2019-04-28T15:38:18.426Z,3.23
2019-04-28T15:40:48.922Z,3.20
2019-04-28T15:43:19.774Z,3.10
2019-04-28T15:45:50.238Z,3.07
2019-04-28T15:48:21.209Z,3.00
2019-04-28T15:50:54.259Z,3.00
2019-04-28T15:53:24.782Z,2.70
2019-04-28T15:56:17.288Z,3.27
2019-04-28T15:58:48.101Z,3.13
2019-04-28T16:01:19.509Z,3.17
2019-04-28T16:03:50.656Z,3.07
2019-04-28T16:06:21.099Z,2.97
2019-04-28T16:08:51.534Z,2.90
2019-04-28T16:11:22.345Z,3.63
2019-04-28T16:13:52.787Z,3.60
2019-04-28T16:16:25.000Z,3.60
2019-04-28T16:18:55.570Z,3.60
2019-04-28T16:21:26.031Z,3.60
2019-04-28T16:23:56.484Z,3.30
2019-04-28T16:26:27.394Z,3.40
2019-04-28T16:28:58.228Z,3.60
2019-04-28T16:31:28.665Z,4.00
2019-04-28T16:33:59.803Z,3.20
2019-04-28T16:36:30.237Z,3.33
2019-04-28T16:39:00.701Z,3.27
2019-04-28T16:41:39.525Z,3.37
2019-04-28T16:44:18.552Z,3.67
2019-04-28T16:46:49.029Z,3.37
2019-04-28T16:49:20.190Z,3.83
2019-04-28T16:51:50.633Z,3.53
2019-04-28T16:54:21.461Z,4.07
2019-04-28T16:57:09.022Z,3.73
2019-04-28T16:59:58.857Z,4.00
2019-04-28T17:02:39.374Z,3.43
2019-04-28T17:05:10.662Z,3.43
2019-04-28T17:07:52.412Z,3.17
2019-04-28T17:10:14.445Z,3.53
2019-04-28T17:12:47.201Z,3.13
2019-04-28T17:15:18.009Z,3.00
2019-04-28T17:17:48.859Z,2.93
2019-04-28T17:20:19.992Z,3.17
2019-04-28T17:22:50.896Z,3.07
2019-04-28T17:25:23.926Z,2.83
2019-04-28T17:27:54.423Z,3.43
2019-04-28T17:30:25.909Z,3.73
2019-04-28T17:32:56.383Z,4.10
2019-04-28T17:35:26.920Z,3.90
2019-04-28T17:38:06.785Z,4.10
2019-04-28T17:40:33.269Z,4.50
2019-04-28T17:43:04.311Z,4.07
2019-04-28T17:45:35.136Z,3.90
2019-04-28T17:48:14.870Z,3.93
2019-04-28T17:50:49.202Z,4.37
2019-04-28T17:53:19.687Z,4.03
2019-04-28T17:55:50.166Z,3.87
2019-04-28T17:58:21.002Z,3.87
2019-04-28T18:01:16.214Z,3.63
2019-04-28T18:04:08.426Z,3.73
2019-04-28T18:06:41.897Z,3.90
2019-04-28T18:09:13.602Z,3.30
2019-04-28T18:11:44.044Z,3.50
2019-04-28T18:14:21.997Z,4.17
2019-04-28T18:17:11.396Z,4.17
2019-04-28T18:19:42.263Z,3.87
2019-04-28T18:22:12.693Z,3.80
2019-04-28T18:24:43.137Z,4.10
2019-04-28T18:27:14.634Z,3.50
2019-04-28T18:29:45.142Z,3.93
2019-04-28T18:32:54.773Z,3.87
2019-04-28T18:35:44.488Z,3.73
2019-04-28T18:38:34.869Z,3.80
2019-04-28T18:41:07.376Z,4.03
2019-04-28T18:43:57.862Z,3.97
2019-04-28T18:46:30.101Z,3.73
2019-04-28T18:49:00.929Z,3.20
2019-04-28T18:51:31.423Z,4.00
2019-04-28T18:54:02.284Z,3.60
2019-04-28T18:56:33.873Z,3.73
2019-04-28T18:59:04.935Z,3.80
2019-04-28T19:02:03.561Z,3.93
2019-04-28T19:04:35.232Z,3.90
2019-04-28T19:07:08.648Z,4.40
2019-04-28T19:09:52.163Z,4.00
2019-04-28T19:12:43.961Z,4.20
2019-04-28T19:15:37.115Z,3.97
2019-04-28T19:18:16.852Z,4.00
2019-04-28T19:20:47.687Z,3.90
2019-04-28T19:23:21.309Z,4.37
2019-04-28T19:25:55.157Z,3.90
2019-04-28T19:28:26.126Z,4.73
2019-04-28T19:30:58.103Z,5.00
2019-04-28T19:33:29.489Z,5.60
2019-04-28T19:36:00.284Z,5.47
2019-04-28T19:38:30.757Z,5.43
2019-04-28T19:41:01.579Z,5.30
2019-04-28T19:43:32.034Z,6.43
2019-04-28T19:46:05.834Z,6.23
2019-04-28T19:48:36.635Z,6.17
2019-04-28T19:51:07.078Z,6.33
2019-04-28T19:53:42.678Z,6.00
2019-04-28T19:56:20.620Z,5.90
2019-04-28T19:59:00.177Z,5.97
2019-04-28T20:01:32.219Z,5.57
2019-04-28T20:04:02.650Z,5.60
2019-04-28T20:06:34.751Z,5.53
2019-04-28T20:09:06.674Z,6.20
2019-04-28T20:11:37.872Z,5.77
2019-04-28T20:14:09.240Z,6.00
2019-04-28T20:16:40.313Z,6.03
2019-04-28T20:19:10.746Z,5.87
2019-04-28T20:21:41.252Z,6.30
2019-04-28T20:24:11.701Z,6.33
2019-04-28T20:26:42.558Z,6.43
2019-04-28T20:29:13.393Z,6.37
2019-04-28T20:31:43.841Z,6.53
2019-04-28T20:34:14.321Z,6.10
2019-04-28T20:36:54.164Z,6.30
2019-04-28T20:39:29.340Z,6.90
2019-04-28T20:42:17.800Z,6.97
2019-04-28T20:44:49.544Z,5.70
2019-04-28T20:47:20.995Z,6.53
2019-04-28T20:49:51.829Z,6.60
2019-04-28T20:52:22.672Z,6.17
2019-04-28T20:54:53.545Z,5.97
2019-04-28T20:57:24.065Z,5.90
2019-04-28T20:59:54.564Z,6.53
2019-04-28T21:02:25.313Z,5.67
2019-04-28T21:04:55.814Z,6.03
2019-04-28T21:07:26.581Z,5.70
2019-04-28T21:09:57.045Z,6.40
2019-04-28T21:12:27.848Z,5.67
2019-04-28T21:14:58.327Z,6.40
2019-04-28T21:17:29.184Z,5.87
2019-04-28T21:20:00.057Z,6.07
2019-04-28T21:22:30.505Z,5.77
2019-04-28T21:25:01.262Z,6.37
2019-04-28T21:27:31.718Z,6.03
2019-04-28T21:30:02.238Z,5.63
2019-04-28T21:32:32.705Z,5.67
2019-04-28T21:35:03.192Z,5.73
2019-04-28T21:37:34.946Z,5.50
2019-04-28T21:40:07.423Z,5.20
2019-04-28T21:42:55.831Z,4.83
2019-04-28T21:45:43.870Z,6.17
2019-04-28T21:48:32.092Z,5.73
2019-04-28T21:51:02.561Z,5.27
2019-04-28T21:53:33.705Z,6.00
2019-04-28T21:56:04.133Z,6.60
2019-04-28T21:58:34.619Z,6.20
2019-04-28T22:01:05.956Z,6.43
2019-04-28T22:03:36.390Z,6.90
2019-04-28T22:06:06.898Z,6.23
2019-04-28T22:08:37.420Z,7.00
2019-04-28T22:11:07.858Z,7.00
2019-04-28T22:13:38.336Z,5.60
2019-04-28T22:16:09.062Z,6.10
2019-04-28T22:18:40.216Z,6.13
2019-04-28T22:21:10.689Z,6.70
2019-04-28T22:24:08.987Z,6.70
2019-04-28T22:26:50.231Z,6.50
2019-04-28T22:29:21.029Z,7.00
2019-04-28T22:31:51.460Z,6.10
2019-04-28T22:34:22.297Z,6.70
2019-04-28T22:36:52.725Z,7.30
2019-04-28T22:39:23.566Z,6.77
2019-04-28T22:41:54.183Z,5.97
2019-04-28T22:44:24.618Z,6.30
2019-04-28T22:46:55.060Z,6.03
2019-04-28T22:49:26.005Z,6.43
2019-04-28T22:51:56.432Z,6.00
2019-04-28T22:54:42.345Z,6.83
2019-04-28T22:57:37.970Z,7.00
2019-04-28T23:00:30.124Z,7.10
2019-04-28T23:03:00.643Z,6.20
2019-04-28T23:05:31.556Z,6.63
2019-04-28T23:08:02.057Z,5.67
2019-04-28T23:10:32.487Z,6.80
2019-04-28T23:13:02.912Z,5.90
2019-04-28T23:15:33.396Z,6.10
2019-04-28T23:18:03.833Z,6.13
2019-04-28T23:20:36.409Z,6.30
2019-04-28T23:23:07.903Z,6.33
2019-04-28T23:25:38.333Z,6.80
2019-04-28T23:28:08.760Z,6.50
2019-04-28T23:30:42.976Z,6.63
2019-04-28T23:33:13.445Z,6.13
2019-04-28T23:35:44.252Z,6.43
2019-04-28T23:38:14.734Z,6.47
2019-04-28T23:40:54.072Z,5.53
2019-04-28T23:43:24.577Z,6.10
2019-04-28T23:45:55.281Z,6.60
2019-04-28T23:48:25.734Z,6.47
2019-04-28T23:51:15.138Z,6.93
2019-04-28T23:54:01.176Z,6.37
2019-04-28T23:56:31.670Z,6.10
2019-04-28T23:59:02.464Z,6.53
